sensor_id;sensor_type;location;lat;lon;timestamp;pressure;altitude;pressure_sealevel;temperature;humidity
13869;BME280;7004;48.206;16.402;2023-09-30T00:02:19;100119.63;;;15.90;88.10
13869;BME280;7004;48.206;16.402;2023-09-30T00:04:45;100120.06;;;15.62;89.66
13869;BME280;7004;48.206;16.402;2023-09-30T00:07:11;100116.06;;;15.67;89.59
13869;BME280;7004;48.206;16.402;2023-09-30T00:09:37;100118.63;;;15.69;89.25
13869;BME280;7004;48.206;16.402;2023-09-30T00:12:04;100117.44;;;15.96;88.48
13869;BME280;7004;48.206;16.402;2023-09-30T00:14:30;100116.19;;;15.55;90.23
13869;BME280;7004;48.206;16.402;2023-09-30T00:16:56;100115.75;;;16.06;88.03
13869;BME280;7004;48.206;16.402;2023-09-30T00:19:22;100119.38;;;15.71;89.46
13869;BME280;7004;48.206;16.402;2023-09-30T00:21:49;100111.63;;;15.90;88.64
13869;BME280;7004;48.206;16.402;2023-09-30T00:24:15;100112.69;;;16.10;87.50
13869;BME280;7004;48.206;16.402;2023-09-30T00:26:41;100112.34;;;15.81;89.30
13869;BME280;7004;48.206;16.402;2023-09-30T00:29:07;100116.22;;;15.77;89.73
13869;BME280;7004;48.206;16.402;2023-09-30T00:31:33;100117.63;;;15.59;90.71
13869;BME280;7004;48.206;16.402;2023-09-30T00:33:59;100112.34;;;16.04;88.36
13869;BME280;7004;48.206;16.402;2023-09-30T00:36:25;100113.22;;;15.93;88.45
13869;BME280;7004;48.206;16.402;2023-09-30T00:38:51;100103.75;;;15.78;88.97
13869;BME280;7004;48.206;16.402;2023-09-30T00:41:18;100106.66;;;16.08;87.94
13869;BME280;7004;48.206;16.402;2023-09-30T00:43:46;100106.19;;;15.81;89.09
13869;BME280;7004;48.206;16.402;2023-09-30T00:46:31;100096.84;;;15.86;88.96
13869;BME280;7004;48.206;16.402;2023-09-30T00:48:59;100106.91;;;15.83;89.32
13869;BME280;7004;48.206;16.402;2023-09-30T00:51:26;100098.91;;;15.94;88.58
13869;BME280;7004;48.206;16.402;2023-09-30T00:53:54;100099.09;;;15.68;89.49
13869;BME280;7004;48.206;16.402;2023-09-30T00:56:30;100106.63;;;15.63;90.15
13869;BME280;7004;48.206;16.402;2023-09-30T00:58:56;100106.25;;;15.68;90.08
13869;BME280;7004;48.206;16.402;2023-09-30T01:01:22;100108.59;;;15.84;89.05
13869;BME280;7004;48.206;16.402;2023-09-30T01:03:49;100108.81;;;15.92;88.28
13869;BME280;7004;48.206;16.402;2023-09-30T01:06:15;100109.78;;;16.02;87.82
13869;BME280;7004;48.206;16.402;2023-09-30T01:08:42;100106.41;;;15.89;88.59
13869;BME280;7004;48.206;16.402;2023-09-30T01:11:08;100117.56;;;15.71;89.71
13869;BME280;7004;48.206;16.402;2023-09-30T01:13:36;100114.53;;;15.87;88.83
13869;BME280;7004;48.206;16.402;2023-09-30T01:16:08;100116.19;;;16.11;87.53
13869;BME280;7004;48.206;16.402;2023-09-30T01:18:39;100120.34;;;16.04;87.92
13869;BME280;7004;48.206;16.402;2023-09-30T01:21:06;100114.16;;;16.03;88.17
13869;BME280;7004;48.206;16.402;2023-09-30T01:23:35;100116.94;;;15.79;89.70
13869;BME280;7004;48.206;16.402;2023-09-30T01:26:12;100113.53;;;15.77;90.01
13869;BME280;7004;48.206;16.402;2023-09-30T01:28:39;100115.75;;;16.06;87.94
13869;BME280;7004;48.206;16.402;2023-09-30T01:31:06;100122.88;;;16.05;88.12
13869;BME280;7004;48.206;16.402;2023-09-30T01:33:33;100121.28;;;16.03;88.38
13869;BME280;7004;48.206;16.402;2023-09-30T01:35:59;100120.22;;;15.94;88.86
13869;BME280;7004;48.206;16.402;2023-09-30T01:38:26;100121.56;;;16.00;89.25
13869;BME280;7004;48.206;16.402;2023-09-30T01:40:53;100120.22;;;15.94;89.88
13869;BME280;7004;48.206;16.402;2023-09-30T01:43:20;100125.53;;;16.05;89.28
13869;BME280;7004;48.206;16.402;2023-09-30T01:45:46;100124.94;;;16.02;89.38
13869;BME280;7004;48.206;16.402;2023-09-30T01:48:13;100130.41;;;16.11;89.29
13869;BME280;7004;48.206;16.402;2023-09-30T01:50:40;100127.38;;;16.05;89.64
13869;BME280;7004;48.206;16.402;2023-09-30T01:53:07;100125.00;;;16.34;88.25
13869;BME280;7004;48.206;16.402;2023-09-30T01:55:33;100131.84;;;16.27;88.74
13869;BME280;7004;48.206;16.402;2023-09-30T01:58:00;100131.69;;;16.28;88.86
13869;BME280;7004;48.206;16.402;2023-09-30T02:00:26;100132.56;;;16.17;89.48
13869;BME280;7004;48.206;16.402;2023-09-30T02:02:57;100132.94;;;16.13;90.38
13869;BME280;7004;48.206;16.402;2023-09-30T02:05:24;100129.13;;;16.38;88.87
13869;BME280;7004;48.206;16.402;2023-09-30T02:07:53;100136.06;;;16.29;89.06
13869;BME280;7004;48.206;16.402;2023-09-30T02:10:20;100133.16;;;16.21;90.49
13869;BME280;7004;48.206;16.402;2023-09-30T02:12:47;100136.56;;;16.12;90.96
13869;BME280;7004;48.206;16.402;2023-09-30T02:15:14;100135.88;;;15.99;91.39
13869;BME280;7004;48.206;16.402;2023-09-30T02:17:42;100140.19;;;16.22;90.59
13869;BME280;7004;48.206;16.402;2023-09-30T02:20:12;100142.03;;;16.10;91.21
13869;BME280;7004;48.206;16.402;2023-09-30T02:22:46;100146.75;;;16.18;91.61
13869;BME280;7004;48.206;16.402;2023-09-30T02:25:13;100148.69;;;16.27;90.35
13869;BME280;7004;48.206;16.402;2023-09-30T02:27:41;100151.09;;;16.08;92.08
13869;BME280;7004;48.206;16.402;2023-09-30T02:30:10;100140.56;;;16.17;91.78
13869;BME280;7004;48.206;16.402;2023-09-30T02:32:39;100141.19;;;16.10;92.67
13869;BME280;7004;48.206;16.402;2023-09-30T02:35:07;100145.69;;;15.98;94.68
13869;BME280;7004;48.206;16.402;2023-09-30T02:37:34;100146.66;;;15.86;94.85
13869;BME280;7004;48.206;16.402;2023-09-30T02:40:12;100152.81;;;16.09;94.08
13869;BME280;7004;48.206;16.402;2023-09-30T02:42:41;100151.56;;;16.35;93.61
13869;BME280;7004;48.206;16.402;2023-09-30T02:45:08;100144.06;;;16.41;93.24
13869;BME280;7004;48.206;16.402;2023-09-30T02:47:36;100148.09;;;16.12;94.52
13869;BME280;7004;48.206;16.402;2023-09-30T02:50:06;100148.47;;;16.19;94.79
13869;BME280;7004;48.206;16.402;2023-09-30T02:52:34;100156.31;;;16.32;94.18
13869;BME280;7004;48.206;16.402;2023-09-30T02:55:00;100148.78;;;16.26;95.41
13869;BME280;7004;48.206;16.402;2023-09-30T02:57:28;100151.47;;;16.14;96.25
13869;BME280;7004;48.206;16.402;2023-09-30T02:59:54;100148.81;;;16.14;95.74
13869;BME280;7004;48.206;16.402;2023-09-30T03:02:22;100142.84;;;16.45;95.39
13869;BME280;7004;48.206;16.402;2023-09-30T03:04:49;100142.28;;;16.62;93.28
13869;BME280;7004;48.206;16.402;2023-09-30T03:07:20;100129.97;;;17.35;89.06
13869;BME280;7004;48.206;16.402;2023-09-30T03:09:47;100134.72;;;17.53;86.84
13869;BME280;7004;48.206;16.402;2023-09-30T03:12:13;100137.53;;;17.51;87.22
13869;BME280;7004;48.206;16.402;2023-09-30T03:14:40;100143.28;;;17.98;84.20
13869;BME280;7004;48.206;16.402;2023-09-30T03:17:06;100140.66;;;18.18;83.19
13869;BME280;7004;48.206;16.402;2023-09-30T03:19:38;100150.19;;;18.51;81.49
13869;BME280;7004;48.206;16.402;2023-09-30T03:22:05;100146.56;;;18.71;80.14
13869;BME280;7004;48.206;16.402;2023-09-30T03:24:38;100153.66;;;19.21;77.69
13869;BME280;7004;48.206;16.402;2023-09-30T03:27:05;100153.66;;;19.21;77.41
13869;BME280;7004;48.206;16.402;2023-09-30T03:29:31;100155.50;;;19.30;76.91
13869;BME280;7004;48.206;16.402;2023-09-30T03:31:57;100152.81;;;19.30;77.51
13869;BME280;7004;48.206;16.402;2023-09-30T03:34:23;100145.56;;;19.70;75.55
13869;BME280;7004;48.206;16.402;2023-09-30T03:36:49;100156.81;;;19.73;75.28
13869;BME280;7004;48.206;16.402;2023-09-30T03:39:15;100159.81;;;19.70;75.17
13869;BME280;7004;48.206;16.402;2023-09-30T03:41:41;100157.50;;;19.85;74.36
13869;BME280;7004;48.206;16.402;2023-09-30T03:44:07;100164.84;;;19.63;76.24
13869;BME280;7004;48.206;16.402;2023-09-30T03:46:34;100160.88;;;19.87;75.22
13869;BME280;7004;48.206;16.402;2023-09-30T03:49:00;100161.97;;;19.94;75.43
13869;BME280;7004;48.206;16.402;2023-09-30T03:51:26;100171.34;;;19.80;76.19
13869;BME280;7004;48.206;16.402;2023-09-30T03:53:52;100166.72;;;20.10;74.76
13869;BME280;7004;48.206;16.402;2023-09-30T03:56:18;100172.34;;;20.17;75.37
13869;BME280;7004;48.206;16.402;2023-09-30T03:58:44;100174.31;;;20.15;76.42
13869;BME280;7004;48.206;16.402;2023-09-30T04:01:11;100178.25;;;20.20;78.36
13869;BME280;7004;48.206;16.402;2023-09-30T04:03:38;100181.34;;;20.25;77.87
13869;BME280;7004;48.206;16.402;2023-09-30T04:06:09;100184.84;;;20.26;79.71
13869;BME280;7004;48.206;16.402;2023-09-30T04:08:35;100182.25;;;20.16;82.66
13869;BME280;7004;48.206;16.402;2023-09-30T04:11:03;100178.41;;;20.19;83.83
13869;BME280;7004;48.206;16.402;2023-09-30T04:13:29;100188.56;;;19.88;86.61
13869;BME280;7004;48.206;16.402;2023-09-30T04:15:56;100190.06;;;20.00;87.76
13869;BME280;7004;48.206;16.402;2023-09-30T04:18:24;100198.50;;;19.68;91.23
13869;BME280;7004;48.206;16.402;2023-09-30T04:20:52;100208.50;;;19.75;90.05
13869;BME280;7004;48.206;16.402;2023-09-30T04:23:19;100211.19;;;19.75;88.92
13869;BME280;7004;48.206;16.402;2023-09-30T04:25:48;100207.53;;;19.67;89.60
13869;BME280;7004;48.206;16.402;2023-09-30T04:28:16;100205.63;;;19.96;87.95
13869;BME280;7004;48.206;16.402;2023-09-30T04:30:47;100209.09;;;19.69;89.52
13869;BME280;7004;48.206;16.402;2023-09-30T04:33:17;100207.91;;;19.81;88.09
13869;BME280;7004;48.206;16.402;2023-09-30T04:35:43;100215.28;;;19.70;87.55
13869;BME280;7004;48.206;16.402;2023-09-30T04:38:10;100231.19;;;19.81;87.50
13869;BME280;7004;48.206;16.402;2023-09-30T04:40:36;100241.50;;;19.66;87.22
13869;BME280;7004;48.206;16.402;2023-09-30T04:43:03;100248.84;;;19.74;86.67
13869;BME280;7004;48.206;16.402;2023-09-30T04:45:29;100256.19;;;19.91;86.92
13869;BME280;7004;48.206;16.402;2023-09-30T04:47:55;100256.63;;;19.77;87.63
13869;BME280;7004;48.206;16.402;2023-09-30T04:50:25;100249.53;;;19.95;86.89
13869;BME280;7004;48.206;16.402;2023-09-30T04:52:51;100253.97;;;19.67;87.59
13869;BME280;7004;48.206;16.402;2023-09-30T04:55:18;100271.91;;;19.67;87.97
13869;BME280;7004;48.206;16.402;2023-09-30T04:57:46;100258.63;;;19.75;87.03
13869;BME280;7004;48.206;16.402;2023-09-30T05:00:15;100267.78;;;19.82;86.66
13869;BME280;7004;48.206;16.402;2023-09-30T05:02:46;100263.78;;;19.96;86.38
13869;BME280;7004;48.206;16.402;2023-09-30T05:05:12;100269.88;;;19.98;85.05
13869;BME280;7004;48.206;16.402;2023-09-30T05:07:38;100283.31;;;19.78;86.06
13869;BME280;7004;48.206;16.402;2023-09-30T05:10:05;100278.47;;;19.92;85.17
13869;BME280;7004;48.206;16.402;2023-09-30T05:12:36;100282.16;;;19.81;85.08
13869;BME280;7004;48.206;16.402;2023-09-30T05:15:04;100282.03;;;19.82;85.05
13869;BME280;7004;48.206;16.402;2023-09-30T05:17:32;100287.41;;;19.73;85.38
13869;BME280;7004;48.206;16.402;2023-09-30T05:19:59;100288.25;;;19.93;84.14
13869;BME280;7004;48.206;16.402;2023-09-30T05:22:25;100298.66;;;20.05;83.52
13869;BME280;7004;48.206;16.402;2023-09-30T05:24:51;100299.41;;;19.78;84.89
13869;BME280;7004;48.206;16.402;2023-09-30T05:27:18;100293.06;;;19.79;84.25
13869;BME280;7004;48.206;16.402;2023-09-30T05:29:45;100301.91;;;19.99;82.84
13869;BME280;7004;48.206;16.402;2023-09-30T05:32:11;100301.47;;;20.04;83.31
13869;BME280;7004;48.206;16.402;2023-09-30T05:34:38;100294.56;;;20.01;82.73
13869;BME280;7004;48.206;16.402;2023-09-30T05:37:05;100296.09;;;20.14;82.65
13869;BME280;7004;48.206;16.402;2023-09-30T05:39:31;100298.38;;;19.99;82.98
13869;BME280;7004;48.206;16.402;2023-09-30T05:41:58;100315.44;;;20.17;82.25
13869;BME280;7004;48.206;16.402;2023-09-30T05:44:24;100303.72;;;20.18;82.02
13869;BME280;7004;48.206;16.402;2023-09-30T05:46:53;100316.75;;;19.94;83.51
13869;BME280;7004;48.206;16.402;2023-09-30T05:49:20;100329.44;;;20.21;81.67
13869;BME280;7004;48.206;16.402;2023-09-30T05:51:46;100325.09;;;20.00;82.92
13869;BME280;7004;48.206;16.402;2023-09-30T05:54:13;100340.00;;;20.13;82.60
13869;BME280;7004;48.206;16.402;2023-09-30T05:56:39;100335.22;;;20.06;82.29
13869;BME280;7004;48.206;16.402;2023-09-30T05:59:09;100342.44;;;20.16;82.34
13869;BME280;7004;48.206;16.402;2023-09-30T06:01:35;100337.59;;;20.29;81.43
13869;BME280;7004;48.206;16.402;2023-09-30T06:04:02;100343.53;;;20.23;81.03
13869;BME280;7004;48.206;16.402;2023-09-30T06:06:28;100334.63;;;20.22;81.19
13869;BME280;7004;48.206;16.402;2023-09-30T06:08:56;100339.19;;;20.02;80.79
13869;BME280;7004;48.206;16.402;2023-09-30T06:11:25;100342.81;;;20.30;78.68
13869;BME280;7004;48.206;16.402;2023-09-30T06:13:55;100348.06;;;20.13;80.36
13869;BME280;7004;48.206;16.402;2023-09-30T06:16:22;100353.28;;;20.24;79.77
13869;BME280;7004;48.206;16.402;2023-09-30T06:18:49;100348.44;;;20.37;79.27
13869;BME280;7004;48.206;16.402;2023-09-30T06:21:16;100359.22;;;20.27;78.61
13869;BME280;7004;48.206;16.402;2023-09-30T06:23:47;100358.47;;;20.55;77.34
13869;BME280;7004;48.206;16.402;2023-09-30T06:26:14;100366.94;;;20.50;77.48
13869;BME280;7004;48.206;16.402;2023-09-30T06:28:43;100373.16;;;20.41;78.48
13869;BME280;7004;48.206;16.402;2023-09-30T06:31:11;100370.66;;;20.29;78.93
13869;BME280;7004;48.206;16.402;2023-09-30T06:33:38;100369.94;;;20.37;78.19
13869;BME280;7004;48.206;16.402;2023-09-30T06:36:14;100372.50;;;20.29;78.55
13869;BME280;7004;48.206;16.402;2023-09-30T06:38:41;100380.50;;;20.39;77.69
13869;BME280;7004;48.206;16.402;2023-09-30T06:41:08;100384.63;;;20.23;77.35
13869;BME280;7004;48.206;16.402;2023-09-30T06:43:34;100373.03;;;20.33;77.27
13869;BME280;7004;48.206;16.402;2023-09-30T06:46:08;100379.09;;;20.44;76.98
13869;BME280;7004;48.206;16.402;2023-09-30T06:48:37;100381.09;;;20.23;77.75
13869;BME280;7004;48.206;16.402;2023-09-30T06:51:06;100377.16;;;20.17;78.24
13869;BME280;7004;48.206;16.402;2023-09-30T06:53:32;100368.56;;;20.14;77.67
13869;BME280;7004;48.206;16.402;2023-09-30T06:55:59;100363.06;;;19.96;78.57
13869;BME280;7004;48.206;16.402;2023-09-30T06:58:25;100370.88;;;20.46;76.03
13869;BME280;7004;48.206;16.402;2023-09-30T07:00:52;100372.22;;;20.22;76.55
13869;BME280;7004;48.206;16.402;2023-09-30T07:03:21;100377.28;;;20.55;75.56
13869;BME280;7004;48.206;16.402;2023-09-30T07:05:47;100378.13;;;20.36;76.16
13869;BME280;7004;48.206;16.402;2023-09-30T07:08:17;100386.84;;;20.67;75.15
13869;BME280;7004;48.206;16.402;2023-09-30T07:10:44;100377.91;;;20.76;75.14
13869;BME280;7004;48.206;16.402;2023-09-30T07:13:12;100385.44;;;20.53;75.35
13869;BME280;7004;48.206;16.402;2023-09-30T07:15:38;100370.56;;;20.68;74.98
13869;BME280;7004;48.206;16.402;2023-09-30T07:18:04;100371.56;;;20.67;74.95
13869;BME280;7004;48.206;16.402;2023-09-30T07:20:30;100378.44;;;20.80;73.44
13869;BME280;7004;48.206;16.402;2023-09-30T07:23:00;100369.16;;;21.02;73.56
13869;BME280;7004;48.206;16.402;2023-09-30T07:25:27;100364.31;;;21.33;70.50
13869;BME280;7004;48.206;16.402;2023-09-30T07:27:53;100372.19;;;21.44;70.43
13869;BME280;7004;48.206;16.402;2023-09-30T07:30:19;100369.44;;;21.54;70.42
13869;BME280;7004;48.206;16.402;2023-09-30T07:32:46;100376.28;;;22.46;65.46
13869;BME280;7004;48.206;16.402;2023-09-30T07:35:13;100368.63;;;22.59;64.59
13869;BME280;7004;48.206;16.402;2023-09-30T07:37:42;100370.13;;;22.88;63.18
13869;BME280;7004;48.206;16.402;2023-09-30T07:40:09;100362.16;;;22.70;62.30
13869;BME280;7004;48.206;16.402;2023-09-30T07:42:38;100368.50;;;22.17;64.45
13869;BME280;7004;48.206;16.402;2023-09-30T07:45:05;100365.69;;;21.65;66.44
13869;BME280;7004;48.206;16.402;2023-09-30T07:47:31;100363.13;;;21.81;66.71
13869;BME280;7004;48.206;16.402;2023-09-30T07:50:03;100376.06;;;21.59;67.46
13869;BME280;7004;48.206;16.402;2023-09-30T07:52:36;100374.22;;;21.78;66.15
13869;BME280;7004;48.206;16.402;2023-09-30T07:55:02;100383.44;;;21.93;65.32
13869;BME280;7004;48.206;16.402;2023-09-30T07:57:31;100375.03;;;22.93;62.69
13869;BME280;7004;48.206;16.402;2023-09-30T07:59:57;100374.97;;;23.53;60.21
13869;BME280;7004;48.206;16.402;2023-09-30T08:02:23;100386.00;;;24.50;56.39
13869;BME280;7004;48.206;16.402;2023-09-30T08:04:54;100381.56;;;24.65;56.34
13869;BME280;7004;48.206;16.402;2023-09-30T08:07:20;100383.22;;;24.74;53.95
13869;BME280;7004;48.206;16.402;2023-09-30T08:09:47;100375.28;;;24.81;53.96
13869;BME280;7004;48.206;16.402;2023-09-30T08:12:13;100372.72;;;24.79;53.82
13869;BME280;7004;48.206;16.402;2023-09-30T08:14:39;100378.63;;;25.31;52.52
13869;BME280;7004;48.206;16.402;2023-09-30T08:17:08;100388.00;;;24.56;54.20
13869;BME280;7004;48.206;16.402;2023-09-30T08:19:34;100383.97;;;24.03;56.17
13869;BME280;7004;48.206;16.402;2023-09-30T08:22:01;100388.28;;;23.04;58.79
13869;BME280;7004;48.206;16.402;2023-09-30T08:24:29;100392.16;;;22.75;59.56
13869;BME280;7004;48.206;16.402;2023-09-30T08:26:55;100389.06;;;22.96;58.97
13869;BME280;7004;48.206;16.402;2023-09-30T08:29:23;100395.78;;;23.26;58.13
13869;BME280;7004;48.206;16.402;2023-09-30T08:31:49;100395.28;;;23.31;58.33
13869;BME280;7004;48.206;16.402;2023-09-30T08:34:18;100396.84;;;22.99;58.70
13869;BME280;7004;48.206;16.402;2023-09-30T08:36:47;100409.00;;;23.46;58.87
13869;BME280;7004;48.206;16.402;2023-09-30T08:39:13;100405.56;;;24.27;55.28
13869;BME280;7004;48.206;16.402;2023-09-30T08:41:39;100407.88;;;24.79;54.59
13869;BME280;7004;48.206;16.402;2023-09-30T08:44:06;100402.22;;;24.50;54.40
13869;BME280;7004;48.206;16.402;2023-09-30T08:46:34;100399.97;;;25.57;51.80
13869;BME280;7004;48.206;16.402;2023-09-30T08:49:05;100400.00;;;24.37;54.62
13869;BME280;7004;48.206;16.402;2023-09-30T08:51:35;100395.59;;;24.44;53.81
13869;BME280;7004;48.206;16.402;2023-09-30T08:54:02;100394.94;;;24.17;53.71
13869;BME280;7004;48.206;16.402;2023-09-30T08:56:31;100399.97;;;24.70;54.01
13869;BME280;7004;48.206;16.402;2023-09-30T08:59:02;100391.28;;;23.51;56.61
13869;BME280;7004;48.206;16.402;2023-09-30T09:01:30;100400.63;;;24.72;53.65
13869;BME280;7004;48.206;16.402;2023-09-30T09:03:57;100400.00;;;24.29;56.35
13869;BME280;7004;48.206;16.402;2023-09-30T09:06:25;100392.84;;;23.70;57.24
13869;BME280;7004;48.206;16.402;2023-09-30T09:08:52;100399.03;;;23.46;57.70
13869;BME280;7004;48.206;16.402;2023-09-30T09:11:18;100393.91;;;23.27;57.25
13869;BME280;7004;48.206;16.402;2023-09-30T09:13:53;100385.75;;;23.61;57.80
13869;BME280;7004;48.206;16.402;2023-09-30T09:16:23;100394.63;;;23.37;58.23
13869;BME280;7004;48.206;16.402;2023-09-30T09:18:49;100393.22;;;23.84;56.78
13869;BME280;7004;48.206;16.402;2023-09-30T09:21:21;100399.16;;;24.12;54.49
13869;BME280;7004;48.206;16.402;2023-09-30T09:23:53;100397.63;;;24.09;54.73
13869;BME280;7004;48.206;16.402;2023-09-30T09:26:28;100399.50;;;25.22;52.60
13869;BME280;7004;48.206;16.402;2023-09-30T09:29:04;100408.25;;;23.86;54.42
13869;BME280;7004;48.206;16.402;2023-09-30T09:31:35;100406.22;;;23.96;54.24
13869;BME280;7004;48.206;16.402;2023-09-30T09:34:14;100409.19;;;23.61;55.20
13869;BME280;7004;48.206;16.402;2023-09-30T09:36:42;100409.69;;;23.48;56.17
13869;BME280;7004;48.206;16.402;2023-09-30T09:39:10;100405.72;;;24.67;53.27
13869;BME280;7004;48.206;16.402;2023-09-30T09:41:53;100406.56;;;23.77;56.00
13869;BME280;7004;48.206;16.402;2023-09-30T09:44:21;100408.53;;;23.16;56.66
13869;BME280;7004;48.206;16.402;2023-09-30T09:46:48;100403.13;;;23.50;56.62
13869;BME280;7004;48.206;16.402;2023-09-30T09:49:21;100405.41;;;23.96;56.18
13869;BME280;7004;48.206;16.402;2023-09-30T09:51:49;100405.59;;;23.94;55.51
13869;BME280;7004;48.206;16.402;2023-09-30T09:54:17;100401.84;;;23.87;54.22
13869;BME280;7004;48.206;16.402;2023-09-30T09:56:46;100408.97;;;24.21;53.51
13869;BME280;7004;48.206;16.402;2023-09-30T09:59:13;100398.31;;;23.95;54.07
13869;BME280;7004;48.206;16.402;2023-09-30T10:01:41;100409.81;;;24.05;54.95
13869;BME280;7004;48.206;16.402;2023-09-30T10:04:11;100410.03;;;23.61;54.99
13869;BME280;7004;48.206;16.402;2023-09-30T10:06:37;100413.69;;;23.44;55.83
13869;BME280;7004;48.206;16.402;2023-09-30T10:09:10;100410.25;;;22.91;57.15
13869;BME280;7004;48.206;16.402;2023-09-30T10:11:38;100407.03;;;23.22;56.82
13869;BME280;7004;48.206;16.402;2023-09-30T10:14:05;100409.00;;;22.77;58.28
13869;BME280;7004;48.206;16.402;2023-09-30T10:19:19;100405.03;;;23.24;57.34
13869;BME280;7004;48.206;16.402;2023-09-30T10:24:42;100407.72;;;22.89;58.98
13869;BME280;7004;48.206;16.402;2023-09-30T10:35:18;100406.19;;;22.87;58.54
13869;BME280;7004;48.206;16.402;2023-09-30T10:37:45;100409.84;;;23.04;58.04
13869;BME280;7004;48.206;16.402;2023-09-30T10:40:41;100412.59;;;22.86;58.35
13869;BME280;7004;48.206;16.402;2023-09-30T10:46:03;100423.09;;;22.45;59.76
13869;BME280;7004;48.206;16.402;2023-09-30T10:48:34;100418.25;;;23.35;58.15
13869;BME280;7004;48.206;16.402;2023-09-30T10:51:15;100422.88;;;22.90;59.25
13869;BME280;7004;48.206;16.402;2023-09-30T10:53:47;100417.56;;;22.99;58.80
13869;BME280;7004;48.206;16.402;2023-09-30T10:56:15;100417.34;;;22.66;59.68
13869;BME280;7004;48.206;16.402;2023-09-30T10:58:52;100416.09;;;23.63;57.92
13869;BME280;7004;48.206;16.402;2023-09-30T11:01:22;100418.22;;;24.43;55.19
13869;BME280;7004;48.206;16.402;2023-09-30T11:03:55;100417.56;;;24.66;53.85
13869;BME280;7004;48.206;16.402;2023-09-30T11:06:23;100414.75;;;25.06;51.73
13869;BME280;7004;48.206;16.402;2023-09-30T11:08:57;100408.25;;;25.32;52.28
13869;BME280;7004;48.206;16.402;2023-09-30T11:11:40;100390.03;;;23.96;53.56
13869;BME280;7004;48.206;16.402;2023-09-30T11:14:25;100397.47;;;24.60;52.90
13869;BME280;7004;48.206;16.402;2023-09-30T11:16:53;100383.97;;;25.07;51.74
13869;BME280;7004;48.206;16.402;2023-09-30T11:19:22;100395.09;;;24.65;52.01
13869;BME280;7004;48.206;16.402;2023-09-30T11:21:52;100398.16;;;24.46;53.01
13869;BME280;7004;48.206;16.402;2023-09-30T11:24:18;100393.78;;;24.45;52.36
13869;BME280;7004;48.206;16.402;2023-09-30T11:26:45;100389.34;;;24.60;52.71
13869;BME280;7004;48.206;16.402;2023-09-30T11:29:16;100397.16;;;24.47;53.02
13869;BME280;7004;48.206;16.402;2023-09-30T11:31:45;100394.19;;;24.81;52.86
13869;BME280;7004;48.206;16.402;2023-09-30T11:34:11;100387.34;;;23.96;54.80
13869;BME280;7004;48.206;16.402;2023-09-30T11:36:40;100398.97;;;24.30;53.87
13869;BME280;7004;48.206;16.402;2023-09-30T11:39:08;100385.91;;;23.60;55.31
13869;BME280;7004;48.206;16.402;2023-09-30T11:41:39;100392.84;;;23.70;55.53
13869;BME280;7004;48.206;16.402;2023-09-30T11:44:11;100402.38;;;24.32;54.46
13869;BME280;7004;48.206;16.402;2023-09-30T11:46:56;100392.91;;;24.19;54.27
13869;BME280;7004;48.206;16.402;2023-09-30T11:49:34;100389.63;;;23.50;56.99
13869;BME280;7004;48.206;16.402;2023-09-30T11:52:07;100394.00;;;23.51;57.03
13869;BME280;7004;48.206;16.402;2023-09-30T11:54:37;100402.66;;;23.21;57.64
13869;BME280;7004;48.206;16.402;2023-09-30T11:57:07;100396.97;;;23.32;57.13
13869;BME280;7004;48.206;16.402;2023-09-30T11:59:37;100387.22;;;23.47;57.58
13869;BME280;7004;48.206;16.402;2023-09-30T12:02:05;100391.19;;;23.19;57.89
13869;BME280;7004;48.206;16.402;2023-09-30T12:04:38;100401.94;;;23.10;57.71
13869;BME280;7004;48.206;16.402;2023-09-30T12:07:05;100399.41;;;23.60;56.17
13869;BME280;7004;48.206;16.402;2023-09-30T12:09:33;100389.56;;;23.42;57.10
13869;BME280;7004;48.206;16.402;2023-09-30T12:12:01;100395.78;;;23.85;56.41
13869;BME280;7004;48.206;16.402;2023-09-30T12:14:28;100393.69;;;23.71;56.63
13869;BME280;7004;48.206;16.402;2023-09-30T12:16:56;100390.34;;;23.69;57.47
13869;BME280;7004;48.206;16.402;2023-09-30T12:19:22;100395.03;;;23.59;56.57
13869;BME280;7004;48.206;16.402;2023-09-30T12:21:49;100398.66;;;24.16;54.78
13869;BME280;7004;48.206;16.402;2023-09-30T12:24:16;100392.06;;;24.11;55.21
13869;BME280;7004;48.206;16.402;2023-09-30T12:26:50;100390.38;;;24.02;55.16
13869;BME280;7004;48.206;16.402;2023-09-30T12:29:19;100386.34;;;23.97;55.05
13869;BME280;7004;48.206;16.402;2023-09-30T12:31:49;100389.19;;;24.04;54.12
13869;BME280;7004;48.206;16.402;2023-09-30T12:34:15;100400.00;;;24.37;53.75
13869;BME280;7004;48.206;16.402;2023-09-30T12:36:42;100397.97;;;24.23;54.43
13869;BME280;7004;48.206;16.402;2023-09-30T12:39:09;100392.41;;;24.24;52.32
13869;BME280;7004;48.206;16.402;2023-09-30T12:41:42;100392.75;;;24.21;53.27
13869;BME280;7004;48.206;16.402;2023-09-30T12:44:10;100382.44;;;23.75;52.95
13869;BME280;7004;48.206;16.402;2023-09-30T12:46:37;100387.50;;;23.79;52.72
13869;BME280;7004;48.206;16.402;2023-09-30T12:49:09;100385.78;;;23.69;54.25
13869;BME280;7004;48.206;16.402;2023-09-30T12:51:36;100386.75;;;23.52;53.92
13869;BME280;7004;48.206;16.402;2023-09-30T12:54:03;100383.97;;;23.19;54.55
13869;BME280;7004;48.206;16.402;2023-09-30T12:56:29;100385.56;;;23.46;54.02
13869;BME280;7004;48.206;16.402;2023-09-30T12:58:56;100388.59;;;23.43;54.62
13869;BME280;7004;48.206;16.402;2023-09-30T13:01:22;100384.78;;;23.79;53.91
13869;BME280;7004;48.206;16.402;2023-09-30T13:03:49;100378.41;;;23.96;53.17
13869;BME280;7004;48.206;16.402;2023-09-30T13:06:16;100384.63;;;23.21;54.12
13869;BME280;7004;48.206;16.402;2023-09-30T13:08:43;100387.03;;;23.32;54.48
13869;BME280;7004;48.206;16.402;2023-09-30T13:11:09;100388.78;;;23.58;53.94
13869;BME280;7004;48.206;16.402;2023-09-30T13:13:37;100388.28;;;23.04;54.94